createdAt,value
2022-11-15T00:01:26.117Z,100903.09
2022-11-15T00:04:17.271Z,100908.24
2022-11-15T00:07:08.434Z,100912.72
2022-11-15T00:09:59.631Z,100915.72
2022-11-15T00:12:50.765Z,100917.59
2022-11-15T00:15:43.577Z,100916.75
2022-11-15T00:18:34.905Z,100919.52
2022-11-15T00:21:26.148Z,100918.69
2022-11-15T00:24:17.382Z,100917.59
2022-11-15T00:27:08.311Z,100916.77
2022-11-15T00:29:59.001Z,100916.45
2022-11-15T00:32:50.082Z,100915.89
2022-11-15T00:35:40.792Z,100919.09
2022-11-15T00:38:39.498Z,100910.66
2022-11-15T00:41:30.458Z,100911.07
2022-11-15T00:44:21.422Z,100912.36
2022-11-15T00:47:12.569Z,100917.41
2022-11-15T00:50:03.136Z,100922.88
2022-11-15T00:52:53.890Z,100924.63
2022-11-15T00:55:44.718Z,100915.75
2022-11-15T00:58:35.992Z,100912.53
2022-11-15T01:01:26.894Z,100917.89
2022-11-15T01:04:17.883Z,100911.98
2022-11-15T01:07:08.809Z,100915.67
2022-11-15T01:09:59.905Z,100908.18
2022-11-15T01:12:51.877Z,100907.12
2022-11-15T01:15:44.307Z,100912.59
2022-11-15T01:18:35.508Z,100905.55
2022-11-15T01:21:26.880Z,100909.62
2022-11-15T01:24:18.333Z,100911.33
2022-11-15T01:27:10.509Z,100914.39
2022-11-15T01:30:01.724Z,100918.95
2022-11-15T01:32:53.686Z,100920.47
2022-11-15T01:35:44.638Z,100921.42
2022-11-15T01:38:35.483Z,100915.41
2022-11-15T01:41:30.233Z,100910.32
2022-11-15T01:44:48.835Z,100917.13
2022-11-15T01:47:43.241Z,100915.80
2022-11-15T01:50:36.058Z,100911.33
2022-11-15T01:53:28.430Z,100909.94
2022-11-15T01:56:26.028Z,100910.21
2022-11-15T01:59:17.399Z,100918.34
2022-11-15T02:02:09.157Z,100920.02
2022-11-15T02:05:00.240Z,100922.70
2022-11-15T02:07:52.362Z,100927.02
2022-11-15T02:10:43.327Z,100934.28
2022-11-15T02:13:34.605Z,100937.86
2022-11-15T02:16:50.625Z,100938.09
2022-11-15T02:19:59.071Z,100939.59
2022-11-15T02:23:14.798Z,100935.02
2022-11-15T02:26:35.679Z,100941.10
2022-11-15T02:29:49.019Z,100934.17
2022-11-15T02:32:49.962Z,100928.36
2022-11-15T02:36:00.396Z,100937.30
2022-11-15T02:39:07.674Z,100940.59
2022-11-15T02:42:08.198Z,100943.05
2022-11-15T02:45:00.675Z,100935.22
2022-11-15T02:47:54.197Z,100938.35
2022-11-15T02:50:46.358Z,100943.53
2022-11-15T02:53:37.284Z,100942.08
2022-11-15T02:56:28.413Z,100940.28
2022-11-15T03:00:01.216Z,100948.89
2022-11-15T03:03:34.454Z,100948.50
2022-11-15T03:06:44.944Z,100945.42
2022-11-15T03:09:46.331Z,100941.61
2022-11-15T03:12:48.049Z,100938.11
2022-11-15T03:15:43.007Z,100940.89
2022-11-15T03:18:46.282Z,100940.00
2022-11-15T03:21:38.521Z,100941.53
2022-11-15T03:24:31.192Z,100932.25
2022-11-15T03:27:25.492Z,100932.64
2022-11-15T03:30:17.499Z,100933.41
2022-11-15T03:33:09.044Z,100930.50
2022-11-15T03:35:59.920Z,100934.39
2022-11-15T03:38:51.906Z,100936.96
2022-11-15T03:41:57.404Z,100927.25
2022-11-15T03:45:14.545Z,100923.19
2022-11-15T03:48:19.065Z,100926.48
2022-11-15T03:51:09.938Z,100919.89
2022-11-15T03:54:01.736Z,100924.52
2022-11-15T03:56:53.115Z,100927.84
2022-11-15T03:59:43.969Z,100924.42
2022-11-15T04:02:34.910Z,100938.19
2022-11-15T04:05:25.886Z,100939.64
2022-11-15T04:08:18.349Z,100937.59
2022-11-15T04:11:09.822Z,100937.59
2022-11-15T04:14:00.755Z,100933.92
2022-11-15T04:16:52.235Z,100937.25
2022-11-15T04:20:02.156Z,100939.98
2022-11-15T04:23:16.250Z,100939.81
2022-11-15T04:26:14.136Z,100948.24
2022-11-15T04:29:23.100Z,100945.29
2022-11-15T04:32:14.099Z,100949.88
2022-11-15T04:35:04.978Z,100944.35
2022-11-15T04:37:56.053Z,100949.63
2022-11-15T04:40:46.696Z,100955.66
2022-11-15T04:43:38.578Z,100960.23
2022-11-15T04:46:30.096Z,100955.45
2022-11-15T04:49:21.400Z,100964.47
2022-11-15T04:52:11.843Z,100965.75
2022-11-15T04:55:07.881Z,100960.61
2022-11-15T04:58:05.849Z,100961.38
2022-11-15T05:00:57.189Z,100961.89
2022-11-15T05:04:07.332Z,100968.48
2022-11-15T05:06:58.274Z,100968.87
2022-11-15T05:09:50.211Z,100955.86
2022-11-15T05:12:41.262Z,100960.06
2022-11-15T05:15:32.881Z,100959.47
2022-11-15T05:18:24.064Z,100956.86
2022-11-15T05:21:17.842Z,100960.67
2022-11-15T05:24:09.099Z,100955.70
2022-11-15T05:27:00.590Z,100953.27
2022-11-15T05:29:52.380Z,100963.88
2022-11-15T05:32:43.405Z,100973.55
2022-11-15T05:35:44.786Z,100967.08
2022-11-15T05:38:36.071Z,100968.49
2022-11-15T05:41:37.670Z,100974.14
2022-11-15T05:44:28.717Z,100975.03
2022-11-15T05:47:25.655Z,100980.69
2022-11-15T05:50:18.694Z,100979.95
2022-11-15T05:53:09.744Z,100977.17
2022-11-15T05:56:00.960Z,100986.88
2022-11-15T05:58:56.763Z,100986.06
2022-11-15T06:01:45.611Z,100983.45
2022-11-15T06:04:36.996Z,100988.19
2022-11-15T06:07:27.971Z,100982.27
2022-11-15T06:10:19.062Z,100988.13
2022-11-15T06:13:10.873Z,100990.66
2022-11-15T06:16:02.122Z,100982.52
2022-11-15T06:18:53.835Z,100982.28
2022-11-15T06:21:45.736Z,100987.19
2022-11-15T06:24:36.285Z,100986.37
2022-11-15T06:27:27.018Z,100988.38
2022-11-15T06:30:17.979Z,100996.64
2022-11-15T06:33:10.261Z,100986.30
2022-11-15T06:36:07.086Z,100987.52
2022-11-15T06:38:57.428Z,100992.77
2022-11-15T06:41:47.793Z,100987.00
2022-11-15T06:44:39.793Z,100987.50
2022-11-15T06:47:30.733Z,100984.81
2022-11-15T06:50:21.519Z,100986.02
2022-11-15T06:53:12.234Z,100979.70
2022-11-15T06:56:06.228Z,100972.47
2022-11-15T06:58:58.067Z,100975.30
2022-11-15T07:01:48.880Z,100974.51
2022-11-15T07:04:40.200Z,100972.80
2022-11-15T07:07:31.507Z,100971.20
2022-11-15T07:10:25.830Z,100966.02
2022-11-15T07:13:17.486Z,100964.73
2022-11-15T07:16:11.792Z,100969.23
2022-11-15T07:19:03.537Z,100970.35
2022-11-15T07:21:54.309Z,100969.05
2022-11-15T07:24:45.615Z,100970.58
2022-11-15T07:27:36.327Z,100974.02
2022-11-15T07:30:28.206Z,100964.46
2022-11-15T07:33:19.184Z,100962.98
2022-11-15T07:36:11.428Z,100965.95
2022-11-15T07:39:02.301Z,100955.36
2022-11-15T07:41:55.116Z,100959.23
2022-11-15T07:44:46.637Z,100966.38
2022-11-15T07:47:38.300Z,100957.70
2022-11-15T07:50:32.279Z,100963.72
2022-11-15T07:53:23.195Z,100968.48
2022-11-15T07:56:15.007Z,100960.00
2022-11-15T07:59:06.241Z,100965.63
2022-11-15T08:01:57.584Z,100961.45
2022-11-15T08:04:50.411Z,100954.28
2022-11-15T08:07:41.678Z,100951.30
2022-11-15T08:10:37.734Z,100950.77
2022-11-15T08:13:25.216Z,100947.96
2022-11-15T08:16:16.635Z,100950.86
2022-11-15T08:19:07.559Z,100939.84
2022-11-15T08:21:58.246Z,100935.49
2022-11-15T08:24:49.409Z,100936.99
2022-11-15T08:27:41.803Z,100942.09
2022-11-15T08:30:39.530Z,100947.71
2022-11-15T08:33:31.425Z,100951.64
2022-11-15T08:36:24.755Z,100940.47
2022-11-15T08:39:15.974Z,100935.75
2022-11-15T08:42:06.636Z,100943.09
2022-11-15T08:44:57.632Z,100937.73
2022-11-15T08:47:53.936Z,100931.33
2022-11-15T08:50:42.165Z,100929.72
2022-11-15T08:53:33.198Z,100923.70
2022-11-15T08:56:25.133Z,100911.52
2022-11-15T08:59:16.002Z,100911.60
2022-11-15T09:02:07.448Z,100908.45
2022-11-15T09:04:59.436Z,100908.27
2022-11-15T09:07:52.306Z,100908.98
2022-11-15T09:10:43.176Z,100903.75
2022-11-15T09:13:33.995Z,100894.40
2022-11-15T09:16:24.853Z,100885.41
2022-11-15T09:19:16.732Z,100884.73
2022-11-15T09:22:09.598Z,100874.41
2022-11-15T09:25:00.030Z,100867.16
2022-11-15T09:27:51.295Z,100864.42
2022-11-15T09:30:42.198Z,100856.58
2022-11-15T09:33:34.790Z,100845.38
2022-11-15T09:36:29.777Z,100838.04
2022-11-15T09:39:21.046Z,100843.37
2022-11-15T09:42:40.333Z,100831.23
2022-11-15T09:46:02.226Z,100833.20
2022-11-15T09:48:55.362Z,100828.65
2022-11-15T09:51:48.207Z,100824.84
2022-11-15T09:54:53.249Z,100822.52
2022-11-15T09:57:22.114Z,100829.87
2022-11-15T10:00:45.930Z,100825.38
2022-11-15T10:02:55.379Z,100823.19
2022-11-15T10:05:30.412Z,100833.67
2022-11-15T10:08:29.526Z,100839.00
2022-11-15T10:13:50.589Z,100833.63
2022-11-15T10:17:01.510Z,100835.05
2022-11-15T10:19:42.268Z,100838.05
2022-11-15T10:22:59.290Z,100813.94
2022-11-15T10:25:35.265Z,100817.55
2022-11-15T10:28:32.655Z,100821.17
2022-11-15T10:31:13.047Z,100814.28
2022-11-15T10:33:45.238Z,100810.53
2022-11-15T10:36:26.946Z,100801.47
2022-11-15T10:39:00.725Z,100790.36
2022-11-15T10:41:38.141Z,100784.02
2022-11-15T10:44:29.585Z,100784.29
2022-11-15T10:47:11.092Z,100775.98
2022-11-15T10:49:48.656Z,100778.45
2022-11-15T10:52:23.600Z,100774.42
2022-11-15T10:55:04.029Z,100772.73
2022-11-15T10:57:40.015Z,100776.25
2022-11-15T11:00:25.295Z,100770.05
2022-11-15T11:03:11.378Z,100764.22
2022-11-15T11:05:44.976Z,100748.55
2022-11-15T11:08:25.216Z,100746.89
2022-11-15T11:11:04.013Z,100741.85
2022-11-15T11:13:40.632Z,100739.66
2022-11-15T11:16:42.367Z,100741.36
2022-11-15T11:19:34.801Z,100732.29
2022-11-15T11:22:45.933Z,100729.97
2022-11-15T11:25:33.237Z,100726.84
2022-11-15T11:28:52.707Z,100728.53
2022-11-15T11:31:55.018Z,100714.69
2022-11-15T11:34:56.206Z,100717.41
2022-11-15T11:37:54.811Z,100710.03
2022-11-15T11:40:46.657Z,100708.46
2022-11-15T11:43:54.614Z,100707.42
2022-11-15T11:46:55.605Z,100702.91
2022-11-15T11:49:55.069Z,100708.75
2022-11-15T11:52:32.658Z,100709.38
2022-11-15T11:55:33.833Z,100704.98
2022-11-15T11:58:17.374Z,100706.67
2022-11-15T12:01:00.628Z,100706.67
2022-11-15T12:03:44.354Z,100696.67
2022-11-15T12:06:46.773Z,100696.67
2022-11-15T12:09:36.843Z,100697.20
2022-11-15T12:12:38.987Z,100686.57
2022-11-15T12:15:18.498Z,100670.25
2022-11-15T12:17:51.921Z,100654.69
2022-11-15T12:20:36.804Z,100653.78
2022-11-15T12:23:23.273Z,100662.95
2022-11-15T12:26:04.984Z,100665.66
2022-11-15T12:29:10.277Z,100655.92
2022-11-15T12:31:45.262Z,100645.69
2022-11-15T12:34:44.396Z,100638.25
2022-11-15T12:37:41.845Z,100639.55
2022-11-15T12:40:34.912Z,100637.21
2022-11-15T12:43:21.654Z,100631.75
2022-11-15T12:45:55.676Z,100613.72
2022-11-15T12:48:39.239Z,100608.38
2022-11-15T12:51:12.595Z,100617.58
2022-11-15T12:53:46.520Z,100614.98
2022-11-15T12:56:22.579Z,100605.41
2022-11-15T12:59:00.339Z,100599.30
2022-11-15T13:01:43.909Z,100591.15
2022-11-15T13:04:28.910Z,100588.67
2022-11-15T13:07:08.878Z,100592.56
2022-11-15T13:09:47.069Z,100591.27
2022-11-15T13:12:36.334Z,100592.05
2022-11-15T13:15:23.289Z,100585.72
2022-11-15T13:17:58.744Z,100580.16
2022-11-15T13:20:35.485Z,100582.25
2022-11-15T13:23:16.749Z,100590.72
2022-11-15T13:26:11.627Z,100588.80
2022-11-15T13:28:55.057Z,100592.95
2022-11-15T13:31:39.940Z,100586.39
2022-11-15T13:34:50.540Z,100590.95
2022-11-15T13:37:02.414Z,100584.11
2022-11-15T13:39:38.652Z,100586.47
2022-11-15T13:42:18.147Z,100584.00
2022-11-15T13:45:03.462Z,100581.58
2022-11-15T13:47:36.799Z,100583.12
2022-11-15T13:50:14.711Z,100581.98
2022-11-15T13:52:50.375Z,100576.52
2022-11-15T13:55:25.399Z,100565.15
2022-11-15T13:58:01.258Z,100554.55
2022-11-15T14:00:44.524Z,100557.77
2022-11-15T14:03:27.018Z,100551.18
2022-11-15T14:06:21.898Z,100550.66
2022-11-15T14:09:14.942Z,100555.30
2022-11-15T14:11:56.652Z,100557.73
2022-11-15T14:14:32.046Z,100556.30
2022-11-15T14:17:04.836Z,100544.27
2022-11-15T14:19:40.876Z,100546.19
2022-11-15T14:22:23.641Z,100546.45
2022-11-15T14:25:23.238Z,100541.38
2022-11-15T14:28:29.268Z,100535.30
2022-11-15T14:31:03.658Z,100531.02
2022-11-15T14:33:41.361Z,100527.91
2022-11-15T14:36:21.860Z,100531.64
2022-11-15T14:38:55.522Z,100528.79
2022-11-15T14:41:30.937Z,100526.47
2022-11-15T14:44:04.878Z,100529.94
2022-11-15T14:46:37.710Z,100529.14
2022-11-15T14:49:10.793Z,100540.62
2022-11-15T14:51:44.045Z,100533.27
2022-11-15T14:54:17.327Z,100523.81
2022-11-15T14:56:50.336Z,100530.89
2022-11-15T14:59:23.563Z,100519.53
2022-11-15T15:01:56.857Z,100507.09
2022-11-15T15:04:29.742Z,100511.09
2022-11-15T15:07:03.001Z,100501.51
2022-11-15T15:09:35.868Z,100500.34
2022-11-15T15:12:14.280Z,100499.26
2022-11-15T15:14:48.779Z,100497.28
2022-11-15T15:17:21.743Z,100496.59
2022-11-15T15:19:54.657Z,100492.06
2022-11-15T15:22:29.120Z,100496.95
2022-11-15T15:25:02.276Z,100493.14
2022-11-15T15:27:35.588Z,100493.98
2022-11-15T15:30:10.570Z,100502.99
2022-11-15T15:32:43.658Z,100494.44
2022-11-15T15:35:18.555Z,100495.98
2022-11-15T15:37:52.671Z,100498.53
2022-11-15T15:40:25.625Z,100497.03
2022-11-15T15:42:58.484Z,100487.98
2022-11-15T15:45:31.370Z,100497.27
2022-11-15T15:48:04.411Z,100496.44
2022-11-15T15:50:37.981Z,100489.06
2022-11-15T15:53:11.767Z,100494.55
2022-11-15T15:55:45.452Z,100494.87
2022-11-15T15:58:18.204Z,100497.42
2022-11-15T16:00:51.171Z,100490.11
2022-11-15T16:03:24.960Z,100490.47
2022-11-15T16:05:59.470Z,100486.20
2022-11-15T16:08:47.495Z,100488.64
2022-11-15T16:11:09.352Z,100483.20
2022-11-15T16:13:42.225Z,100479.94
2022-11-15T16:16:16.745Z,100471.70
2022-11-15T16:18:49.834Z,100463.30
2022-11-15T16:21:23.308Z,100459.78
2022-11-15T16:23:56.541Z,100451.77
2022-11-15T16:26:45.425Z,100451.08
2022-11-15T16:29:19.110Z,100452.08
2022-11-15T16:31:52.098Z,100453.72
2022-11-15T16:34:30.028Z,100452.06
2022-11-15T16:37:00.211Z,100454.45
2022-11-15T16:39:34.310Z,100448.11
2022-11-15T16:42:08.032Z,100447.58
2022-11-15T16:44:41.259Z,100453.27
2022-11-15T16:47:22.972Z,100455.84
2022-11-15T16:49:56.252Z,100448.72
2022-11-15T16:52:29.305Z,100453.72
2022-11-15T16:55:02.925Z,100442.08
2022-11-15T16:57:36.622Z,100437.39
2022-11-15T17:00:15.451Z,100439.97
2022-11-15T17:02:51.099Z,100444.22
2022-11-15T17:05:27.337Z,100443.24
2022-11-15T17:08:00.564Z,100438.97
2022-11-15T17:10:33.808Z,100430.56
2022-11-15T17:13:06.744Z,100424.08
2022-11-15T17:15:39.780Z,100414.92
2022-11-15T17:18:15.723Z,100409.92
2022-11-15T17:20:48.892Z,100402.95
2022-11-15T17:23:22.658Z,100403.48
2022-11-15T17:26:23.917Z,100393.05
2022-11-15T17:28:40.490Z,100393.25
2022-11-15T17:31:15.462Z,100391.81
2022-11-15T17:33:48.474Z,100392.31
2022-11-15T17:36:21.374Z,100387.02
2022-11-15T17:38:59.315Z,100380.73
2022-11-15T17:41:29.872Z,100376.08
2022-11-15T17:44:03.924Z,100372.32
2022-11-15T17:46:37.439Z,100368.16
2022-11-15T17:49:10.327Z,100359.11
2022-11-15T17:51:46.167Z,100358.42
2022-11-15T17:54:17.869Z,100347.78
2022-11-15T17:56:51.866Z,100356.14
2022-11-15T17:59:25.176Z,100355.39
2022-11-15T18:01:58.480Z,100350.79
2022-11-15T18:04:31.835Z,100350.64
2022-11-15T18:07:04.967Z,100343.28
2022-11-15T18:09:40.360Z,100343.81
2022-11-15T18:12:14.524Z,100342.92
2022-11-15T18:14:47.551Z,100337.70
2022-11-15T18:17:21.157Z,100332.94
2022-11-15T18:19:54.192Z,100331.50
2022-11-15T18:22:27.734Z,100335.82
2022-11-15T18:25:00.902Z,100332.74
2022-11-15T18:27:34.378Z,100335.67
2022-11-15T18:30:09.323Z,100326.16
2022-11-15T18:32:43.328Z,100327.30
2022-11-15T18:35:16.628Z,100325.48
2022-11-15T18:37:49.932Z,100325.48
2022-11-15T18:40:22.921Z,100326.86
2022-11-15T18:42:56.304Z,100328.70
2022-11-15T18:45:29.389Z,100334.30
2022-11-15T18:48:02.312Z,100335.44
2022-11-15T18:50:36.860Z,100333.94
2022-11-15T18:53:10.455Z,100323.86
2022-11-15T18:55:43.798Z,100322.81
2022-11-15T18:58:16.773Z,100321.77
2022-11-15T19:00:50.879Z,100320.73
2022-11-15T19:03:24.786Z,100316.73
2022-11-15T19:06:17.096Z,100314.84
2022-11-15T19:08:53.371Z,100308.72
2022-11-15T19:11:31.303Z,100308.27
2022-11-15T19:14:08.564Z,100312.77
2022-11-15T19:16:45.348Z,100312.08
2022-11-15T19:19:28.010Z,100304.21
2022-11-15T19:22:02.268Z,100313.21
2022-11-15T19:24:51.690Z,100303.31
2022-11-15T19:27:24.700Z,100306.24
2022-11-15T19:29:57.597Z,100302.78
2022-11-15T19:32:30.950Z,100304.95
2022-11-15T19:35:05.074Z,100302.92
2022-11-15T19:37:39.121Z,100290.61
2022-11-15T19:40:13.698Z,100293.03
2022-11-15T19:42:47.480Z,100295.96
2022-11-15T19:45:20.318Z,100288.73
2022-11-15T19:47:53.380Z,100290.47
2022-11-15T19:50:26.451Z,100280.52
2022-11-15T19:53:00.730Z,100289.95
2022-11-15T19:55:32.843Z,100296.31
2022-11-15T19:58:05.496Z,100297.45
2022-11-15T20:00:39.083Z,100297.66
2022-11-15T20:03:12.051Z,100291.23
2022-11-15T20:05:45.308Z,100281.79
2022-11-15T20:08:18.659Z,100269.81
2022-11-15T20:10:51.477Z,100266.94
2022-11-15T20:13:24.735Z,100272.13
2022-11-15T20:15:57.923Z,100264.36
2022-11-15T20:18:32.064Z,100259.81
2022-11-15T20:21:06.613Z,100261.73
2022-11-15T20:23:39.853Z,100251.55
2022-11-15T20:26:13.333Z,100257.13
2022-11-15T20:28:48.432Z,100247.83
2022-11-15T20:31:22.088Z,100244.95
2022-11-15T20:33:55.310Z,100245.94
2022-11-15T20:36:28.594Z,100243.06
2022-11-15T20:39:02.253Z,100236.73
2022-11-15T20:41:35.314Z,100237.17
2022-11-15T20:44:07.980Z,100225.86
2022-11-15T20:46:41.070Z,100210.53
2022-11-15T20:49:14.290Z,100211.67
2022-11-15T20:51:48.238Z,100217.23
2022-11-15T20:54:21.304Z,100211.41
2022-11-15T20:56:55.404Z,100206.52
2022-11-15T20:59:28.428Z,100202.36
2022-11-15T21:02:18.546Z,100200.42
2022-11-15T21:04:51.049Z,100205.59
2022-11-15T21:07:24.715Z,100208.16
2022-11-15T21:10:15.226Z,100198.67
2022-11-15T21:12:48.443Z,100189.89
2022-11-15T21:15:21.441Z,100190.83
2022-11-15T21:17:55.014Z,100176.33
2022-11-15T21:20:28.343Z,100176.71
2022-11-15T21:23:01.753Z,100176.56
2022-11-15T21:25:35.860Z,100173.45
2022-11-15T21:28:08.699Z,100169.06
2022-11-15T21:30:41.755Z,100159.42
2022-11-15T21:33:15.697Z,100162.34
2022-11-15T21:35:48.708Z,100159.78
2022-11-15T21:38:23.991Z,100153.75
2022-11-15T21:40:57.466Z,100156.40
2022-11-15T21:43:30.433Z,100146.22
2022-11-15T21:46:07.437Z,100151.55
2022-11-15T21:48:40.875Z,100149.22
2022-11-15T21:51:14.237Z,100151.40
2022-11-15T21:53:47.240Z,100150.59
2022-11-15T21:56:20.635Z,100142.58
2022-11-15T21:58:54.797Z,100143.56
2022-11-15T22:01:47.129Z,100146.20
2022-11-15T22:04:21.963Z,100141.81
2022-11-15T22:06:55.293Z,100145.67
2022-11-15T22:09:28.415Z,100142.25
2022-11-15T22:12:01.601Z,100136.66
2022-11-15T22:14:36.052Z,100128.97
2022-11-15T22:17:15.354Z,100126.05
2022-11-15T22:19:52.883Z,100119.02
2022-11-15T22:22:23.200Z,100110.66
2022-11-15T22:24:57.798Z,100109.89
2022-11-15T22:27:32.526Z,100103.12
2022-11-15T22:30:06.655Z,100098.15
2022-11-15T22:32:40.654Z,100094.95
2022-11-15T22:35:14.138Z,100089.83
2022-11-15T22:37:47.322Z,100091.66
2022-11-15T22:40:20.774Z,100083.22
2022-11-15T22:42:54.163Z,100085.78
2022-11-15T22:45:27.455Z,100081.55
2022-11-15T22:48:00.833Z,100082.98
2022-11-15T22:50:34.230Z,100082.09
2022-11-15T22:53:07.388Z,100080.42
2022-11-15T22:55:42.025Z,100080.42
2022-11-15T22:58:15.712Z,100073.62
2022-11-15T23:00:52.274Z,100074.16
2022-11-15T23:03:28.473Z,100067.27
2022-11-15T23:06:07.589Z,100058.98
2022-11-15T23:08:41.213Z,100046.70
2022-11-15T23:11:32.769Z,100045.92
2022-11-15T23:14:07.376Z,100038.17
2022-11-15T23:16:40.859Z,100041.54
2022-11-15T23:19:15.357Z,100036.86
2022-11-15T23:33:17.299Z,100007.25
2022-11-15T23:35:57.644Z,100000.59
2022-11-15T23:38:30.934Z,99999.85
2022-11-15T23:41:05.781Z,99989.14
2022-11-15T23:43:38.889Z,99992.10
2022-11-15T23:46:12.043Z,99986.34
2022-11-15T23:48:46.032Z,99994.33
2022-11-15T23:51:19.361Z,99995.77
2022-11-15T23:53:52.548Z,99988.84
2022-11-15T23:56:25.689Z,99980.06
2022-11-15T23:58:59.922Z,99972.86
